Latest Weather Observations for Mackay Airport

IDQ60801

Issued at 3:02 am EST Tuesday 31 March 2015 (issued every 30 minutes, with the page automatically refreshed every 10 minutes)

About weather observations | Map of weather stations | Latest weather observations for QLD | Other Formats
Station Details ID: 033045 Name: MACKAY AERO Lat: -21.17 Lon: 149.18 Height: 4.7 m
Data from the previous 72 hours. | See also: Recent months at Mackay Airport
Date/Time
EST
Temp
°C
App
Temp
°C
Dew
Point
Rel
Hum
%
Delta-T
°C
Wind Press
QNH
hPa
Press
MSL
hPa
Rain
since 9 am
mm
Dir
 
Spd
km/h
Gust
km/h
Spd
kts
Gust
kts
31/03:00am 23.6 24.7 21.9 90 1.1 SE 19 24 10 13 1015.9 1015.9 10.8
31/02:48am 23.4 24.6 22.2 93 0.8 SE 19 24 10 13 1016.2 1016.2 10.8
31/02:30am 23.3 23.5 22.1 93 0.8 SE 24 30 13 16 1016.6 1016.6 10.6
31/02:00am 23.6 23.1 22.2 92 0.9 ESE 28 39 15 21 1016.8 1016.8 10.2
31/01:54am 24.1 23.5 22.7 92 0.9 ESE 30 39 16 21 1016.8 1016.8 10.0
31/01:41am 24.0 22.4 22.6 92 0.9 ESE 35 44 19 24 1016.8 1016.8 10.0
31/01:30am 24.3 23.3 22.7 91 1.1 ESE 32 43 17 23 1016.9 1016.9 9.8
31/01:23am 24.6 25.8 22.5 88 1.4 E 20 43 11 23 1017.1 1017.1 9.8
31/01:00am 24.7 26.9 22.6 88 1.4 ENE 15 20 8 11 1017.3 1017.3 9.8
31/12:35am 24.2 25.9 22.3 89 1.3 ENE 17 24 9 13 1017.6 1017.6 9.8
31/12:30am 24.1 25.1 22.2 89 1.3 ENE 20 28 11 15 1017.7 1017.7 9.8
31/12:16am 24.2 24.3 22.6 91 1.1 E 26 35 14 19 1017.9 1017.9 9.6
 
Date/Time
EST
Temp
°C
App
Temp
°C
Dew
Point
Rel
Hum
%
Delta-T
°C
Wind Press
QNH
hPa
Press
MSL
hPa
Rain
since 9 am
mm
Dir
 
Spd
km/h
Gust
km/h
Spd
kts
Gust
kts
30/11:56pm 25.1 25.4 23.0 88 1.4 E 26 43 14 23 1018.0 1018.0 9.6
30/11:30pm 25.2 27.0 23.3 89 1.3 E 19 24 10 13 1018.1 1018.1 9.6
30/11:11pm 24.9 27.1 23.3 91 1.1 E 17 24 9 13 1018.1 1018.1 9.6
30/11:00pm 24.6 26.2 23.2 92 0.9 E 20 32 11 17 1018.2 1018.2 9.6
30/10:55pm 24.7 25.1 23.1 91 1.1 E 26 35 14 19 1018.3 1018.3 9.4
30/10:34pm 25.0 25.8 23.1 89 1.3 E 24 32 13 17 1018.3 1018.3 9.2
30/10:30pm 24.9 26.0 23.1 90 1.2 ENE 22 32 12 17 1018.3 1018.3 9.2
30/10:07pm 24.3 23.9 22.4 89 1.3 ENE 28 48 15 26 1018.7 1018.7 5.8
30/10:00pm 24.6 24.1 22.8 90 1.2 ENE 30 41 16 22 1018.7 1018.7 5.4
30/09:52pm 24.6 23.3 22.5 88 1.4 ENE 33 43 18 23 1018.7 1018.7 5.2
30/09:30pm 26.4 27.3 23.3 83 2.1 ESE 24 32 13 17 1018.6 1018.6 4.8
30/09:00pm 26.2 26.3 22.5 80 2.5 ESE 26 35 14 19 1018.7 1018.7 4.8
30/08:30pm 25.9 27.1 23.2 85 1.8 ESE 22 28 12 15 1018.6 1018.6 4.8
30/08:00pm 25.5 25.3 22.8 85 1.8 ESE 28 37 15 20 1018.4 1018.4 4.8
30/07:30pm 24.6 25.9 22.3 87 1.5 S 19 28 10 15 1018.2 1018.2 4.8
30/07:00pm 25.8 27.7 22.7 83 2.1 SE 17 24 9 13 1017.8 1017.8 4.8
30/06:30pm 25.2 25.9 22.3 84 1.9 SE 22 30 12 16 1017.6 1017.6 4.8
30/06:00pm 25.8 27.2 22.9 84 2.0 SE 20 26 11 14 1017.4 1017.4 4.8
30/05:30pm 25.1 26.5 22.8 87 1.6 SE 20 24 11 13 1017.1 1017.1 4.8
30/05:00pm 26.0 28.1 23.7 87 1.6 SE 19 28 10 15 1017.0 1017.0 4.8
30/04:48pm 25.3 26.5 23.2 88 1.4 SE 22 30 12 16 1016.9 1016.9 4.8
30/04:30pm 25.2 26.4 23.8 92 1.0 SSE 24 33 13 18 1016.8 1016.8 4.6
30/04:15pm 26.6 26.5 23.5 83 2.1 SE 30 41 16 22 1016.7 1016.7 1.4
30/04:00pm 29.6 30.9 22.3 65 4.9 ESE 19 24 10 13 1016.2 1016.2 0.8
30/03:30pm 30.1 31.3 22.5 63 5.2 ESE 20 24 11 13 1016.1 1016.1 0.8
30/03:00pm 30.4 31.9 23.1 65 5.0 ESE 20 26 11 14 1015.9 1015.9 0.8
30/02:30pm 27.6 25.7 19.4 61 5.3 SE 28 37 15 20 1016.0 1016.0 0.8
30/02:00pm 30.2 31.2 22.9 65 5.0 E 22 30 12 16 1016.2 1016.2 0.8
30/01:30pm 30.3 31.8 23.0 65 5.0 E 20 28 11 15 1016.5 1016.5 0.8
30/01:00pm 29.9 30.5 22.1 63 5.3 E 22 28 12 15 1017.0 1017.0 0.8
30/12:30pm 30.1 30.4 22.3 63 5.3 E 24 30 13 16 1017.4 1017.4 0.8
30/12:00pm 30.1 30.3 22.0 62 5.5 E 24 30 13 16 1017.9 1017.9 0.8
30/11:30am 29.8 30.9 22.3 64 5.1 E 20 28 11 15 1018.4 1018.4 0.6
30/11:00am 29.3 30.8 23.0 69 4.3 E 20 28 11 15 1018.7 1018.7 0.6
30/10:30am 28.5 30.9 24.3 78 2.9 ESE 19 22 10 12 1019.1 1019.1 0.6
30/10:00am 26.9 30.2 24.5 87 1.7 ESE 15 19 8 10 1019.3 1019.3 0.6
30/09:50am 25.6 27.7 23.1 86 1.7 ESE 17 20 9 11 1019.3 1019.3 0.6
30/09:30am 25.0 25.3 22.9 88 1.4 ESE 26 37 14 20 1019.5 1019.5 0.6
30/09:21am 24.9 27.6 22.8 88 1.4 S 13 28 7 15 1019.5 1019.5 0.4
30/09:00am 25.6 27.9 22.7 84 2.0 SSE 15 22 8 12 1019.3 1019.3 17.8
30/08:30am 26.1 27.8 23.4 85 1.8 SE 20 24 11 13 1019.0 1019.0 17.8
30/08:14am 24.7 25.7 22.8 89 1.3 SE 22 30 12 16 1018.9 1018.9 17.8
30/08:00am 24.0 24.8 23.1 95 0.6 SE 24 33 13 18 1018.9 1018.9 17.8
30/07:30am 24.4 26.1 23.0 92 0.9 ESE 19 30 10 16 1018.4 1018.4 11.2
30/07:22am 24.9 27.3 23.0 89 1.3 SE 15 26 8 14 1018.5 1018.5 9.4
30/07:00am 25.2 26.7 23.1 88 1.4 SE 20 28 11 15 1017.8 1017.8 7.8
30/06:30am 23.5 25.2 22.3 93 0.8 S 17 32 9 17 1017.7 1017.7 7.8
30/06:00am 23.2 26.0 21.6 91 1.1 SW 9 13 5 7 1017.7 1017.7 7.8
30/05:30am 23.0 26.2 21.6 92 0.9 SW 7 9 4 5 1017.5 1017.5 7.8
30/05:00am 23.2 25.5 22.0 93 0.8 S 13 17 7 9 1017.2 1017.2 7.8
30/04:30am 23.3 25.0 22.3 94 0.7 S 17 20 9 11 1017.0 1017.0 7.8
30/04:00am 23.0 25.0 22.2 95 0.5 S 15 20 8 11 1016.8 1016.8 7.8
30/03:47am 22.9 24.3 21.9 94 0.7 S 17 24 9 13 1016.6 1016.6 7.8
30/03:35am 22.9 24.7 21.9 94 0.7 S 15 22 8 12 1016.7 1016.7 7.8
30/03:30am 22.8 24.8 21.6 93 0.8 SSW 13 19 7 10 1016.9 1016.9 7.2
30/03:00am 22.9 24.5 21.5 92 0.9 S 15 19 8 10 1016.7 1016.7 7.2
30/02:39am 23.1 25.1 22.3 95 0.5 S 15 19 8 10 1016.9 1016.9 7.2
30/02:30am 23.0 25.3 22.0 94 0.7 S 13 17 7 9 1017.0 1017.0 7.2
30/02:13am 23.2 26.2 22.0 93 0.8 S 9 19 5 10 1017.4 1017.4 5.6
30/02:00am 23.1 26.3 21.7 92 0.9 S 7 13 4 7 1017.4 1017.4 5.2
30/01:30am 23.1 25.2 21.7 92 0.9 S 13 17 7 9 1017.6 1017.6 5.2
30/01:00am 23.2 24.3 22.0 93 0.8 S 19 24 10 13 1017.8 1017.8 5.2
30/12:31am 23.6 24.4 22.4 93 0.8 S 22 28 12 15 1018.0 1018.0 5.2
30/12:30am 23.7 24.5 22.5 93 0.8 S 22 28 12 15 1018.0 1018.0 5.2
30/12:11am 24.3 25.2 22.6 90 1.1 SSE 22 35 12 19 1018.5 1018.5 4.6
30/12:00am 25.0 26.5 23.1 89 1.3 SSE 20 26 11 14 1018.5 1018.5 3.4
 
Date/Time
EST
Temp
°C
App
Temp
°C
Dew
Point
Rel
Hum
%
Delta-T
°C
Wind Press
QNH
hPa
Press
MSL
hPa
Rain
since 9 am
mm
Dir
 
Spd
km/h
Gust
km/h
Spd
kts
Gust
kts
29/11:37pm 24.0 25.7 22.3 90 1.1 SSE 17 22 9 12 1018.7 1018.7 3.4
29/11:30pm 24.0 25.7 22.4 91 1.1 SSE 17 28 9 15 1018.8 1018.8 3.4
29/11:18pm 24.0 24.7 22.3 90 1.1 SSE 22 32 12 17 1018.9 1018.9 3.0
29/11:00pm 24.0 25.7 22.3 90 1.1 S 17 22 9 12 1019.1 1019.1 2.2
29/10:30pm 24.1 26.6 22.4 90 1.1 S 13 22 7 12 1019.4 1019.4 2.2
29/10:00pm 24.4 25.5 22.3 88 1.4 S 20 28 11 15 1019.3 1019.3 2.2
29/09:30pm 24.3 27.0 22.2 88 1.4 S 11 20 6 11 1019.2 1019.2 2.2
29/09:00pm 23.9 26.5 22.0 89 1.3 SSW 11 15 6 8 1019.1 1019.1 2.2
29/08:30pm 23.4 25.8 21.5 89 1.3 SSW 11 15 6 8 1018.9 1018.9 2.2
29/08:00pm 23.7 25.4 21.6 88 1.4 SSW 15 17 8 9 1018.7 1018.7 2.2
29/07:30pm 24.4 26.7 22.1 87 1.5 SSW 13 17 7 9 1018.4 1018.4 2.2
29/07:00pm 24.9 27.2 22.0 84 1.9 S 13 17 7 9 1018.0 1018.0 2.2
29/06:30pm 25.3 27.2 22.0 82 2.2 S 15 20 8 11 1017.9 1017.9 2.2
29/06:00pm 25.7 26.8 22.4 82 2.2 S 20 22 11 12 1017.6 1017.6 2.2
29/05:30pm 26.5 28.2 22.3 78 2.8 SSE 17 22 9 12 1017.3 1017.3 2.2
29/05:00pm 28.5 28.7 21.3 65 4.8 ESE 22 28 12 15 1016.9 1016.9 2.2
29/04:30pm 29.5 29.1 20.9 60 5.7 ESE 24 30 13 16 1016.8 1016.8 2.2
29/04:00pm 29.8 29.2 20.6 57 6.1 E 24 32 13 17 1016.5 1016.5 2.2
29/03:30pm 30.2 29.6 21.3 59 6.0 ESE 26 33 14 18 1016.4 1016.4 2.2
29/03:00pm 30.4 29.8 20.6 55 6.5 E 24 32 13 17 1016.5 1016.5 2.2
29/02:30pm 30.6 29.9 21.1 57 6.4 E 26 33 14 18 1016.5 1016.5 2.2
29/02:00pm 30.5 30.7 21.3 58 6.2 E 22 30 12 16 1016.9 1016.9 2.2
29/01:30pm 29.7 30.2 21.9 63 5.3 ESE 22 28 12 15 1017.2 1017.2 2.2
29/01:00pm 29.8 30.3 22.0 63 5.3 ESE 22 30 12 16 1017.7 1017.7 2.2
29/12:30pm 30.1 30.8 22.3 63 5.3 E 22 30 12 16 1017.9 1017.9 2.2
29/12:00pm 30.2 31.2 22.9 65 5.0 E 22 28 12 15 1018.2 1018.2 2.2
29/11:30am 28.8 29.4 22.8 70 4.1 ENE 24 32 13 17 1018.5 1018.5 2.2
29/11:00am 28.3 28.5 24.1 78 2.9 ENE 30 41 16 22 1018.6 1018.6 2.0
29/10:54am 28.2 29.4 23.8 77 3.0 E 24 37 13 20 1018.6 1018.6 2.0
29/10:30am 28.0 31.1 23.6 77 3.0 ESE 13 19 7 10 1018.7 1018.7 2.0
29/10:29am 28.1 32.0 24.3 80 2.6 ESE 11 19 6 10 1018.8 1018.8 2.0
29/10:08am 25.7 25.6 21.4 77 2.8 E 24 33 13 18 1019.1 1019.1 1.0
29/10:00am 28.8 28.8 21.0 62 5.2 ESE 22 26 12 14 1018.8 1018.8 0.0
29/09:30am 30.5 30.5 21.6 59 6.0 E 24 32 13 17 1018.8 1018.8 0.0
29/09:00am 30.0 30.1 21.9 62 5.5 ESE 24 32 13 17 1018.7 1018.7 0.0
29/08:30am 29.0 28.8 21.2 62 5.2 ESE 24 32 13 17 1018.5 1018.5 0.0
29/08:00am 28.1 28.4 21.6 68 4.3 E 22 28 12 15 1018.3 1018.3 0.0
29/07:30am 28.0 28.1 21.1 66 4.6 E 22 30 12 16 1017.9 1017.9 0.0
29/07:00am 27.7 28.3 21.3 68 4.3 E 20 26 11 14 1017.3 1017.3 0.0
29/06:30am 27.0 26.9 20.8 69 4.1 E 22 30 12 16 1016.9 1016.9 0.0
29/06:00am 26.8 27.2 20.9 70 3.9 E 20 28 11 15 1016.6 1016.6 0.0
29/05:30am 26.4 26.4 20.9 72 3.6 E 22 32 12 17 1016.3 1016.3 0.0
29/05:00am 26.7 27.7 22.1 76 3.1 E 20 30 11 16 1016.0 1016.0 0.0
29/04:30am 26.4 26.8 22.5 79 2.6 ESE 24 28 13 15 1015.7 1015.7 0.0
29/04:00am 26.3 28.3 22.2 78 2.8 ESE 15 20 8 11 1015.4 1015.4 0.0
29/03:30am 26.6 27.0 20.9 71 3.8 E 20 24 11 13 1015.5 1015.5 0.0
29/03:00am 26.5 26.7 21.3 73 3.4 E 22 30 12 16 1015.6 1015.6 0.0
29/02:30am 26.5 26.7 21.3 73 3.4 ESE 22 28 12 15 1015.7 1015.7 0.0
29/02:00am 26.5 27.2 21.5 74 3.3 E 20 28 11 15 1016.0 1016.0 0.0
29/01:30am 26.7 26.7 21.0 71 3.8 E 22 28 12 15 1016.3 1016.3 0.0
29/01:00am 26.9 26.4 20.7 69 4.1 E 24 32 13 17 1016.4 1016.4 0.0
29/12:30am 27.0 26.3 21.1 70 3.9 E 26 32 14 17 1016.6 1016.6 0.0
29/12:00am 27.0 25.9 21.1 70 3.9 E 28 33 15 18 1016.9 1016.9 0.0
 
Date/Time
EST
Temp
°C
App
Temp
°C
Dew
Point
Rel
Hum
%
Delta-T
°C
Wind Press
QNH
hPa
Press
MSL
hPa
Rain
since 9 am
mm
Dir
 
Spd
km/h
Gust
km/h
Spd
kts
Gust
kts
28/11:30pm 27.1 27.7 21.4 71 3.8 E 20 28 11 15 1017.2 1017.2 0.0
28/11:00pm 27.2 27.2 21.0 69 4.1 ESE 22 30 12 16 1017.2 1017.2 0.0
28/10:30pm 27.2 26.8 21.0 69 4.1 ESE 24 30 13 16 1017.4 1017.4 0.0
28/10:00pm 27.2 26.6 21.2 69 4.0 ESE 26 32 14 17 1017.5 1017.5 0.0
28/09:30pm 27.3 27.1 22.0 73 3.6 ESE 26 33 14 18 1017.4 1017.4 0.0
28/09:00pm 27.4 27.7 22.3 73 3.4 ESE 24 32 13 17 1017.4 1017.4 0.0
28/08:30pm 27.6 27.9 22.3 73 3.6 ESE 24 32 13 17 1017.1 1017.1 0.0
28/08:00pm 27.3 27.7 21.8 72 3.7 ESE 22 30 12 16 1016.9 1016.9 0.0
28/07:30pm 27.4 28.2 21.7 71 3.8 ESE 20 26 11 14 1016.6 1016.6 0.0
28/07:00pm 27.4 28.4 21.7 71 3.8 ESE 19 26 10 14 1016.2 1016.2 0.0
28/06:30pm 27.4 28.2 21.7 71 3.8 ESE 20 26 11 14 1015.8 1015.8 0.0
28/06:00pm 27.6 28.2 21.4 69 4.1 ESE 20 24 11 13 1015.4 1015.4 0.0
28/05:30pm 28.3 28.8 21.1 65 4.8 ESE 20 28 11 15 1015.2 1015.2 0.0
28/05:00pm 29.1 28.4 21.1 62 5.3 ESE 26 33 14 18 1015.1 1015.1 0.0
28/04:30pm 29.5 28.6 20.6 58 5.9 SE 26 35 14 19 1015.0 1015.0 0.0
28/04:00pm 30.2 29.5 21.0 58 6.1 SE 26 33 14 18 1014.9 1014.9 0.0
28/03:30pm 30.7 29.5 20.9 56 6.5 ESE 28 35 15 19 1015.0 1015.0 0.0
28/03:00pm 30.6 29.1 20.2 53 6.9 ESE 28 37 15 20 1015.2 1015.2 0.0
28/02:30pm 30.4 28.7 20.6 55 6.5 SE 30 35 16 19 1015.3 1015.3 0.0
28/02:00pm 30.7 29.5 20.9 56 6.5 ESE 28 35 15 19 1015.6 1015.6 0.0
28/01:30pm 30.9 30.1 21.7 58 6.2 ESE 28 37 15 20 1015.8 1015.8 0.0
28/01:00pm 30.8 31.6 23.2 64 5.2 ESE 24 32 13 17 1015.9 1015.9 0.0
28/12:30pm 30.7 30.5 21.2 57 6.4 ESE 24 32 13 17 1016.3 1016.3 0.0
28/12:00pm 30.5 30.3 21.3 58 6.2 ESE 24 30 13 16 1016.8 1016.8 0.0
28/11:30am 30.5 30.5 21.0 57 6.3 ESE 22 28 12 15 1017.3 1017.3 0.0
28/11:00am 29.5 29.3 20.6 58 5.9 SE 22 32 12 17 1017.6 1017.6 0.0
28/10:30am 29.1 29.4 20.8 61 5.5 SE 20 28 11 15 1017.9 1017.9 0.0
28/10:00am 30.4 31.4 21.8 60 5.8 ESE 19 26 10 14 1018.0 1018.0 0.0
28/09:30am 28.9 29.1 20.6 61 5.5 ESE 20 26 11 14 1017.9 1017.9 0.0
28/09:00am 29.8 30.0 20.6 57 6.1 ESE 20 26 11 14 1017.8 1017.8 0.0
28/08:30am 29.2 30.3 21.2 62 5.3 ESE 17 22 9 12 1017.6 1017.6 0.0
28/08:00am 26.6 29.3 21.4 73 3.4 SW 9 17 5 9 1017.5 1017.5 0.0
28/07:30am 24.9 27.2 21.4 81 2.3 WSW 11 13 6 7 1017.2 1017.2 0.0
28/07:00am 23.3 24.8 21.2 88 1.4 WSW 15 19 8 10 1016.8 1016.8 0.0
28/06:30am 23.0 25.8 20.9 88 1.4 WSW 7 9 4 5 1016.4 1016.4 0.0
28/06:00am 22.6 25.0 20.9 90 1.1 WSW 9 11 5 6 1016.1 1016.1 0.0
28/05:30am 22.6 24.9 20.7 89 1.2 WSW 9 15 5 8 1015.9 1015.9 0.0
28/05:00am 22.5 24.8 20.6 89 1.2 WSW 9 15 5 8 1015.8 1015.8 0.0
28/04:30am 22.7 25.2 21.0 90 1.1 WSW 9 11 5 6 1015.6 1015.6 0.0
28/04:00am 22.8 25.0 21.1 90 1.1 WSW 11 15 6 8 1015.3 1015.3 0.0
28/03:30am 23.4 26.2 21.5 89 1.3 WSW 9 11 5 6 1015.2 1015.2 0.0

Other Formats:

Comma delimited format used in spreadsheet applications
http://www.bom.gov.au/fwo/IDQ60801/IDQ60801.95367.axf

JavaScript Object Notation format (JSON) in row-major order
http://www.bom.gov.au/fwo/IDQ60801/IDQ60801.95367.json